Time;durP1;ratioP1;P1;durP2;ratioP2;P2;SDS_P1;SDS_P2;PMS_P1;PMS_P2;Temp;Humidity;BMP_temperature;BMP_pressure;BME280_temperature;BME280_humidity;BME280_pressure;Samples;Min_cycle;Max_cycle;Signal;HPM_P1;HPM_P2
2022/11/30 00:00:21;;;;;;;9.52;4.32;;;9.30;99.90;;;;;;5030548;28;20489;-87
2022/11/30 00:02:48;;;;;;;9.25;4.18;;;9.30;99.90;;;;;;5039664;28;21394;-87
2022/11/30 00:05:14;;;;;;;10.20;4.27;;;9.30;99.90;;;;;;5008894;28;20025;-87
2022/11/30 00:07:40;;;;;;;9.10;4.20;;;9.30;99.90;;;;;;5032560;28;20413;-88
2022/11/30 00:10:06;;;;;;;8.43;3.65;;;9.20;99.90;;;;;;5000243;28;20261;-87
2022/11/30 00:12:32;;;;;;;11.23;4.73;;;9.20;99.90;;;;;;5026632;28;20079;-87
2022/11/30 00:14:58;;;;;;;9.05;4.13;;;9.20;99.90;;;;;;5033500;28;20663;-87
2022/11/30 00:17:24;;;;;;;7.93;3.85;;;9.20;99.90;;;;;;4997539;28;20486;-87
2022/11/30 00:19:49;;;;;;;10.63;4.50;;;9.20;99.90;;;;;;5005502;28;20032;-87
2022/11/30 00:22:15;;;;;;;9.20;4.18;;;9.20;99.90;;;;;;5010458;28;20106;-87
2022/11/30 00:24:41;;;;;;;9.77;4.43;;;9.20;99.90;;;;;;5027111;28;20025;-87
2022/11/30 00:27:06;;;;;;;11.40;4.25;;;9.20;99.90;;;;;;5001002;28;20026;-87
2022/11/30 00:29:33;;;;;;;10.00;4.57;;;9.20;99.90;;;;;;5045115;28;20226;-87
2022/11/30 00:31:58;;;;;;;11.88;3.85;;;9.20;99.90;;;;;;5027357;28;20074;-87
2022/11/30 00:34:24;;;;;;;9.37;4.20;;;9.20;99.90;;;;;;4985315;28;20254;-87
2022/11/30 00:36:49;;;;;;;9.70;4.28;;;9.30;99.90;;;;;;5028189;28;20481;-87
2022/11/30 00:39:15;;;;;;;9.33;4.53;;;9.20;99.90;;;;;;5025780;28;20521;-87
2022/11/30 00:41:41;;;;;;;9.75;3.95;;;9.20;99.90;;;;;;5043983;28;20322;-87
2022/11/30 00:44:06;;;;;;;9.93;4.73;;;9.20;99.90;;;;;;4999656;28;20071;-87
2022/11/30 00:46:32;;;;;;;9.37;4.10;;;9.20;99.90;;;;;;5012832;28;20017;-87
2022/11/30 00:48:58;;;;;;;11.82;4.15;;;9.20;99.90;;;;;;5034620;28;20028;-87
2022/11/30 00:51:23;;;;;;;9.83;3.90;;;9.20;99.90;;;;;;5010198;28;20067;-87
2022/11/30 00:53:49;;;;;;;10.68;4.20;;;9.20;99.90;;;;;;5012140;28;20021;-88
2022/11/30 00:56:15;;;;;;;12.73;4.83;;;9.20;99.90;;;;;;5000801;28;20683;-87
2022/11/30 00:58:41;;;;;;;11.40;4.30;;;9.20;99.90;;;;;;5003817;28;20087;-87
2022/11/30 01:01:07;;;;;;;9.48;4.57;;;9.20;99.90;;;;;;5018110;28;20040;-87
2022/11/30 01:03:33;;;;;;;10.00;3.87;;;9.20;99.90;;;;;;5006152;28;20492;-87
2022/11/30 01:06:08;;;;;;;9.98;4.22;;;9.20;99.90;;;;;;5005921;28;20029;-87
2022/11/30 01:08:34;;;;;;;11.02;4.20;;;9.20;99.90;;;;;;5041558;28;20068;-87
2022/11/30 01:11:27;;;;;;;10.25;4.43;;;9.20;99.90;;;;;;5020463;28;20568;-87
2022/11/30 01:13:53;;;;;;;13.35;4.47;;;9.20;99.90;;;;;;5035371;28;20052;-87
2022/11/30 01:16:26;;;;;;;10.57;4.13;;;9.20;99.90;;;;;;5009922;28;20037;-87
2022/11/30 01:18:52;;;;;;;12.88;5.43;;;9.30;99.90;;;;;;5038016;28;20049;-87
2022/11/30 01:21:21;;;;;;;10.45;5.13;;;9.30;99.90;;;;;;5003089;28;20292;-87
2022/11/30 01:23:47;;;;;;;9.65;4.22;;;9.20;99.90;;;;;;5012551;28;20052;-87
2022/11/30 01:26:14;;;;;;;9.82;4.30;;;9.20;99.90;;;;;;5051047;28;20033;-87
2022/11/30 01:28:42;;;;;;;9.40;4.40;;;9.30;99.90;;;;;;5017050;28;20034;-87
2022/11/30 01:31:11;;;;;;;10.60;4.38;;;9.30;99.90;;;;;;4992946;28;20493;-87
2022/11/30 01:33:37;;;;;;;9.15;4.18;;;9.30;99.90;;;;;;5053640;28;20545;-87
2022/11/30 01:36:10;;;;;;;10.68;4.47;;;9.30;99.90;;;;;;5004670;28;20482;-87
2022/11/30 01:38:38;;;;;;;14.48;4.95;;;9.30;99.90;;;;;;5011486;28;20563;-87
2022/11/30 01:41:05;;;;;;;10.87;4.23;;;9.30;99.90;;;;;;5011995;28;20370;-87
2022/11/30 01:43:44;;;;;;;11.98;4.47;;;9.30;99.90;;;;;;5018887;28;20242;-87
2022/11/30 01:46:28;;;;;;;8.73;3.70;;;9.30;99.90;;;;;;5001244;28;20736;-88
2022/11/30 01:49:08;;;;;;;8.32;3.97;;;9.30;99.90;;;;;;5028816;28;20353;-87
2022/11/30 01:51:47;;;;;;;11.68;4.38;;;9.30;99.90;;;;;;4994606;28;20032;-87
2022/11/30 01:54:16;;;;;;;8.83;3.97;;;9.30;99.90;;;;;;5018092;28;20103;-87
2022/11/30 01:56:55;;;;;;;10.07;4.20;;;9.30;99.90;;;;;;5027540;28;20037;-87
2022/11/30 01:59:24;;;;;;;10.02;4.20;;;9.30;99.90;;;;;;5014053;28;20037;-88
2022/11/30 02:01:51;;;;;;;10.02;4.47;;;9.30;99.90;;;;;;5042514;28;20067;-87
2022/11/30 02:04:20;;;;;;;9.80;4.07;;;9.20;99.90;;;;;;5022706;28;20049;-87
2022/11/30 02:06:47;;;;;;;7.97;3.53;;;9.20;99.90;;;;;;5014255;28;20031;-87
2022/11/30 02:09:14;;;;;;;9.32;3.72;;;9.20;99.90;;;;;;4998642;28;20685;-87
2022/11/30 02:11:39;;;;;;;11.27;4.03;;;9.20;99.90;;;;;;5022722;28;20037;-87
2022/11/30 02:14:13;;;;;;;18.53;4.27;;;9.20;99.90;;;;;;5001111;28;20419;-88
2022/11/30 02:16:41;;;;;;;10.73;4.50;;;9.20;99.90;;;;;;5018684;28;20037;-87
2022/11/30 02:19:09;;;;;;;9.90;3.95;;;9.20;99.90;;;;;;4996632;28;20561;-88
2022/11/30 02:21:38;;;;;;;10.45;3.90;;;9.10;99.90;;;;;;5011376;28;20029;-87
2022/11/30 02:24:38;;;;;;;10.32;4.38;;;9.10;99.90;;;;;;4997534;28;20021;-88
2022/11/30 02:27:09;;;;;;;13.47;4.40;;;9.10;99.90;;;;;;5001509;28;20217;-88
2022/11/30 02:30:01;;;;;;;10.13;3.67;;;9.10;99.90;;;;;;5001953;28;20029;-87
2022/11/30 02:32:45;;;;;;;8.77;4.05;;;9.10;99.90;;;;;;5020966;28;20033;-87
2022/11/30 02:35:16;;;;;;;10.02;4.40;;;9.10;99.90;;;;;;5027931;28;20030;-87
2022/11/30 02:37:43;;;;;;;16.67;4.60;;;9.10;99.90;;;;;;5046636;28;20040;-87
2022/11/30 02:40:12;;;;;;;10.07;4.00;;;9.00;99.90;;;;;;4993974;28;20021;-87
2022/11/30 02:42:38;;;;;;;9.02;3.78;;;9.00;99.90;;;;;;5037107;28;20840;-88
2022/11/30 02:45:06;;;;;;;9.70;3.95;;;9.00;99.90;;;;;;5010594;28;20226;-87
2022/11/30 02:47:59;;;;;;;11.03;4.80;;;9.00;99.90;;;;;;5025101;28;20036;-87
2022/11/30 02:50:34;;;;;;;8.82;3.83;;;9.00;99.90;;;;;;5018204;28;20486;-87
2022/11/30 02:53:00;;;;;;;9.07;3.92;;;9.00;99.90;;;;;;5023091;28;20529;-87
2022/11/30 02:55:28;;;;;;;11.25;4.07;;;9.10;99.90;;;;;;4992112;28;20121;-87
2022/11/30 02:57:54;;;;;;;9.90;4.15;;;9.00;99.90;;;;;;5038785;28;20473;-87
2022/11/30 03:00:20;;;;;;;10.63;4.27;;;9.00;99.90;;;;;;5003749;28;20086;-87
2022/11/30 03:02:45;;;;;;;9.90;4.18;;;9.00;99.90;;;;;;5010011;28;20026;-87
2022/11/30 03:05:11;;;;;;;10.60;4.07;;;9.00;99.90;;;;;;5023733;28;20266;-87
2022/11/30 03:07:37;;;;;;;10.80;4.13;;;9.00;99.90;;;;;;5035392;28;20020;-87
2022/11/30 03:10:04;;;;;;;10.45;3.70;;;9.00;99.90;;;;;;4985936;28;20025;-87
2022/11/30 03:12:29;;;;;;;9.93;4.20;;;9.00;99.90;;;;;;5037364;28;20034;-87
2022/11/30 03:14:55;;;;;;;11.60;4.77;;;9.00;99.90;;;;;;4997183;28;20029;-87
2022/11/30 03:17:21;;;;;;;11.18;3.75;;;9.00;99.90;;;;;;5009837;28;20125;-87
2022/11/30 03:19:46;;;;;;;8.87;4.10;;;9.00;99.90;;;;;;5035151;28;20073;-87
2022/11/30 03:22:12;;;;;;;8.60;3.87;;;9.00;99.90;;;;;;4996196;28;20381;-87
2022/11/30 03:24:38;;;;;;;9.90;4.10;;;9.00;99.90;;;;;;4985066;28;26144;-87
2022/11/30 03:27:03;;;;;;;10.75;4.38;;;9.00;99.90;;;;;;5008628;28;20026;-87
2022/11/30 03:29:29;;;;;;;9.47;4.13;;;9.00;99.90;;;;;;5014373;28;23300;-87
2022/11/30 03:31:55;;;;;;;10.38;4.18;;;9.00;99.90;;;;;;5038569;28;20516;-88
2022/11/30 03:34:21;;;;;;;9.17;4.27;;;9.00;99.90;;;;;;5022549;28;20656;-87
2022/11/30 03:36:47;;;;;;;10.63;4.15;;;9.00;99.90;;;;;;5014122;28;20367;-87
2022/11/30 03:39:12;;;;;;;10.03;4.10;;;9.00;99.90;;;;;;4992915;28;20487;-87
2022/11/30 03:41:38;;;;;;;10.10;4.18;;;9.00;99.90;;;;;;5003312;28;20071;-87
2022/11/30 03:44:04;;;;;;;9.80;4.07;;;9.00;99.90;;;;;;5024920;28;20032;-88
2022/11/30 03:46:30;;;;;;;10.18;3.95;;;9.00;99.90;;;;;;5018996;28;20029;-87
2022/11/30 03:48:55;;;;;;;11.10;4.70;;;8.90;99.90;;;;;;5016634;28;20021;-87
2022/11/30 03:51:21;;;;;;;12.80;4.27;;;9.00;99.90;;;;;;5040239;28;20774;-88
2022/11/30 03:53:47;;;;;;;11.47;4.43;;;8.90;99.90;;;;;;5034126;28;20112;-87
2022/11/30 03:56:13;;;;;;;12.05;4.05;;;9.00;99.90;;;;;;4999880;28;20026;-87
2022/11/30 03:58:39;;;;;;;12.23;4.47;;;8.90;99.90;;;;;;5025663;28;20033;-87
2022/11/30 04:01:11;;;;;;;10.70;4.17;;;9.00;99.90;;;;;;5004936;28;20481;-87
2022/11/30 04:03:37;;;;;;;11.60;4.20;;;8.90;99.90;;;;;;5036545;28;20025;-87
2022/11/30 04:06:04;;;;;;;10.73;4.00;;;8.90;99.90;;;;;;5035757;28;20312;-87
2022/11/30 04:08:30;;;;;;;11.32;4.15;;;8.90;99.90;;;;;;5018244;28;20029;-87
2022/11/30 04:10:58;;;;;;;10.20;3.95;;;8.80;99.90;;;;;;5015718;28;20547;-87
2022/11/30 04:13:24;;;;;;;12.87;3.80;;;8.80;99.90;;;;;;5019964;28;20088;-88
2022/11/30 04:15:51;;;;;;;12.73;3.95;;;8.90;99.90;;;;;;5023043;28;20391;-87
2022/11/30 04:18:18;;;;;;;9.38;3.90;;;8.80;99.90;;;;;;5010797;28;20328;-87
2022/11/30 04:20:44;;;;;;;10.57;4.22;;;8.80;99.90;;;;;;5027387;28;20028;-87
2022/11/30 04:23:10;;;;;;;10.40;3.70;;;8.80;99.90;;;;;;5003683;28;20017;-87
2022/11/30 04:25:37;;;;;;;8.82;3.65;;;8.80;99.90;;;;;;5049926;28;20079;-87
2022/11/30 04:28:03;;;;;;;10.63;4.32;;;8.80;99.90;;;;;;5022101;28;20032;-87
2022/11/30 04:30:28;;;;;;;10.53;4.00;;;8.80;99.90;;;;;;5018457;28;20728;-87
2022/11/30 04:32:54;;;;;;;11.05;4.20;;;8.80;99.90;;;;;;5024483;28;20567;-87
2022/11/30 04:35:20;;;;;;;11.83;3.90;;;8.80;99.90;;;;;;5036295;28;20025;-87
2022/11/30 04:37:45;;;;;;;11.93;3.72;;;8.80;99.90;;;;;;5038773;28;20371;-87
2022/11/30 04:40:11;;;;;;;11.80;4.07;;;8.80;99.90;;;;;;5003190;28;20018;-87
2022/11/30 04:42:37;;;;;;;11.38;4.53;;;8.80;99.90;;;;;;4988902;28;21828;-87
2022/11/30 04:45:03;;;;;;;10.60;4.07;;;8.80;99.90;;;;;;5008030;28;20032;-87
2022/11/30 04:47:28;;;;;;;12.40;3.97;;;8.80;99.90;;;;;;5029846;28;20449;-87
2022/11/30 04:49:54;;;;;;;10.05;3.70;;;8.80;99.90;;;;;;5007715;28;20028;-87
2022/11/30 04:52:20;;;;;;;10.00;3.87;;;8.80;99.90;;;;;;5035105;28;20440;-87
2022/11/30 04:54:46;;;;;;;9.77;3.70;;;8.80;99.90;;;;;;4999117;28;20030;-87
2022/11/30 04:57:11;;;;;;;7.93;3.57;;;8.80;99.90;;;;;;5023504;28;20123;-87
2022/11/30 04:59:37;;;;;;;9.80;3.83;;;8.80;99.90;;;;;;5030083;28;20033;-87
2022/11/30 05:02:02;;;;;;;10.97;4.60;;;8.80;99.90;;;;;;5008422;28;22462;-87
2022/11/30 05:04:28;;;;;;;9.23;4.00;;;8.80;99.90;;;;;;5030304;28;20021;-87
2022/11/30 05:06:54;;;;;;;13.00;4.28;;;8.80;99.90;;;;;;5010806;28;20028;-87
2022/11/30 05:09:19;;;;;;;11.40;4.30;;;8.80;99.90;;;;;;5011249;28;20542;-87
2022/11/30 05:11:47;;;;;;;10.93;4.40;;;8.80;99.90;;;;;;5002270;28;20120;-87
2022/11/30 05:14:13;;;;;;;10.33;3.93;;;8.80;99.90;;;;;;5008695;28;20025;-87
2022/11/30 05:16:38;;;;;;;13.43;4.22;;;8.80;99.90;;;;;;5037156;28;20041;-87
2022/11/30 05:19:04;;;;;;;12.13;3.83;;;8.80;99.90;;;;;;5031062;28;20692;-87
2022/11/30 05:21:30;;;;;;;9.88;4.15;;;8.80;99.90;;;;;;5013639;28;20605;-87
2022/11/30 05:23:56;;;;;;;9.98;4.00;;;8.80;99.90;;;;;;5019999;28;20352;-87
2022/11/30 05:26:22;;;;;;;9.93;4.07;;;8.80;99.90;;;;;;5000741;28;20075;-87
2022/11/30 05:28:47;;;;;;;10.57;4.13;;;8.80;99.90;;;;;;4996646;28;20492;-87
2022/11/30 05:31:13;;;;;;;11.87;4.63;;;8.80;99.90;;;;;;5002559;28;20052;-87
2022/11/30 05:33:38;;;;;;;11.60;4.65;;;8.80;99.90;;;;;;5002318;28;20063;-87
2022/11/30 05:36:04;;;;;;;9.30;4.00;;;8.80;99.90;;;;;;5029602;28;20575;-87
2022/11/30 05:38:30;;;;;;;12.50;4.82;;;8.80;99.90;;;;;;5016025;28;20551;-87
2022/11/30 05:41:02;;;;;;;9.93;4.03;;;8.80;99.90;;;;;;4999719;28;20029;-87
2022/11/30 05:43:28;;;;;;;9.50;4.22;;;8.80;99.90;;;;;;5007428;28;20258;-87
2022/11/30 05:46:01;;;;;;;10.10;4.20;;;8.80;99.90;;;;;;5005261;28;20024;-87
2022/11/30 05:48:27;;;;;;;10.48;3.95;;;8.80;99.90;;;;;;5027923;28;20664;-87
2022/11/30 05:50:52;;;;;;;9.35;3.70;;;8.80;99.90;;;;;;5021688;28;20018;-87
2022/11/30 05:53:18;;;;;;;10.50;4.20;;;8.80;99.90;;;;;;5019506;28;20029;-87
2022/11/30 05:55:44;;;;;;;12.57;4.55;;;8.80;99.90;;;;;;5007264;28;20403;-87
2022/11/30 05:58:09;;;;;;;19.20;4.17;;;8.80;99.90;;;;;;5025224;28;20040;-87
2022/11/30 06:00:35;;;;;;;10.43;3.83;;;8.80;99.90;;;;;;5001628;28;20036;-87
2022/11/30 06:03:01;;;;;;;9.37;4.13;;;8.80;99.90;;;;;;4993170;28;20033;-87
2022/11/30 06:05:27;;;;;;;10.95;4.28;;;8.80;99.90;;;;;;5001955;28;20119;-87
2022/11/30 06:07:53;;;;;;;11.10;3.63;;;8.80;99.90;;;;;;5011205;28;20029;-87
2022/11/30 06:10:19;;;;;;;9.98;4.35;;;8.80;99.90;;;;;;5034831;28;20478;-87
2022/11/30 06:12:45;;;;;;;9.88;3.50;;;8.80;99.90;;;;;;4985787;28;20098;-87
2022/11/30 06:15:11;;;;;;;12.90;4.07;;;8.80;99.90;;;;;;4995690;28;20060;-87
2022/11/30 06:17:37;;;;;;;14.13;4.63;;;8.80;99.90;;;;;;5013414;28;20113;-87
2022/11/30 06:20:06;;;;;;;12.98;4.57;;;8.80;99.90;;;;;;5009735;28;20506;-87
2022/11/30 06:22:32;;;;;;;9.85;3.83;;;8.80;99.90;;;;;;5009731;28;20029;-87
2022/11/30 06:24:58;;;;;;;10.00;4.03;;;8.70;99.90;;;;;;5033750;28;20028;-87
2022/11/30 06:27:23;;;;;;;10.90;3.63;;;8.70;99.90;;;;;;5026471;28;20507;-87
2022/11/30 06:29:49;;;;;;;10.27;4.03;;;8.80;99.90;;;;;;4990719;28;20029;-87
2022/11/30 06:32:14;;;;;;;9.43;4.13;;;8.80;99.90;;;;;;5031560;28;20025;-87
2022/11/30 06:34:40;;;;;;;13.15;4.75;;;8.80;99.90;;;;;;5008023;28;20028;-87
2022/11/30 06:37:06;;;;;;;10.20;4.33;;;8.80;99.90;;;;;;5018310;28;20043;-87
2022/11/30 06:39:31;;;;;;;12.13;4.90;;;8.80;99.90;;;;;;5001831;28;20153;-87
2022/11/30 06:41:57;;;;;;;9.67;4.20;;;8.80;99.90;;;;;;5026276;28;20024;-87
2022/11/30 06:44:23;;;;;;;10.30;4.18;;;8.80;99.90;;;;;;5021557;28;20036;-87
2022/11/30 06:46:48;;;;;;;12.07;4.73;;;8.80;99.90;;;;;;5009017;28;21854;-87
2022/11/30 06:49:14;;;;;;;10.67;4.93;;;8.80;99.90;;;;;;5002808;28;20466;-87
2022/11/30 06:51:40;;;;;;;11.35;4.05;;;8.80;99.90;;;;;;5002394;28;20613;-87
2022/11/30 06:54:06;;;;;;;11.75;4.28;;;8.80;99.90;;;;;;5025714;28;20134;-87
2022/11/30 06:56:32;;;;;;;9.67;4.47;;;8.80;99.90;;;;;;5017796;28;20908;-89
2022/11/30 06:58:57;;;;;;;11.73;4.22;;;8.80;99.90;;;;;;5033009;28;20102;-87
2022/11/30 07:01:23;;;;;;;8.47;3.80;;;8.80;99.90;;;;;;4999686;28;20052;-87
2022/11/30 07:03:48;;;;;;;16.70;4.00;;;8.80;99.90;;;;;;5018475;28;20238;-87
2022/11/30 07:06:14;;;;;;;9.43;4.00;;;8.80;99.90;;;;;;5008020;28;20025;-87
2022/11/30 07:08:41;;;;;;;15.25;4.35;;;8.80;99.90;;;;;;5024806;28;20514;-87
2022/11/30 07:11:08;;;;;;;10.60;4.03;;;8.80;99.90;;;;;;5012148;28;20040;-87
2022/11/30 07:13:34;;;;;;;12.63;4.30;;;8.80;99.90;;;;;;5051027;28;20041;-87
2022/11/30 07:16:05;;;;;;;8.27;3.78;;;8.80;99.90;;;;;;5028959;28;20028;-87
2022/11/30 07:18:31;;;;;;;11.35;4.18;;;8.80;99.90;;;;;;4985617;28;20037;-87
2022/11/30 07:20:59;;;;;;;10.07;3.83;;;8.80;99.90;;;;;;5013145;28;20525;-88
2022/11/30 07:26:10;;;;;;;10.02;4.28;;;8.80;99.90;;;;;;5010775;28;20078;-87
2022/11/30 07:28:41;;;;;;;15.18;4.38;;;8.80;99.90;;;;;;5017533;28;20417;-87
2022/11/30 07:31:20;;;;;;;11.55;4.38;;;8.80;99.90;;;;;;4998717;28;20021;-87
2022/11/30 07:33:47;;;;;;;15.73;4.77;;;8.80;99.90;;;;;;4999481;28;20304;-87
2022/11/30 07:36:12;;;;;;;11.20;3.33;;;8.70;99.90;;;;;;5007353;28;20027;-87
2022/11/30 07:38:38;;;;;;;9.00;4.03;;;8.80;99.90;;;;;;4992200;28;20219;-87
2022/11/30 07:41:04;;;;;;;8.93;3.80;;;8.80;99.90;;;;;;5021025;28;20030;-87
2022/11/30 07:43:30;;;;;;;15.00;4.13;;;8.70;99.90;;;;;;5025764;28;20024;-87
2022/11/30 07:45:56;;;;;;;11.02;4.68;;;8.70;99.90;;;;;;5015360;28;20044;-87
2022/11/30 07:48:22;;;;;;;10.17;4.53;;;8.80;99.90;;;;;;4995617;28;20051;-87
2022/11/30 07:50:48;;;;;;;10.63;4.32;;;8.70;99.90;;;;;;5018216;28;20211;-87
2022/11/30 07:53:14;;;;;;;10.93;4.43;;;8.80;99.90;;;;;;5015551;28;20078;-87
2022/11/30 07:55:41;;;;;;;8.38;3.78;;;8.80;99.90;;;;;;5033234;28;20584;-87
2022/11/30 07:58:08;;;;;;;12.93;4.50;;;8.80;99.90;;;;;;5035908;28;20040;-87
2022/11/30 08:00:35;;;;;;;8.10;3.77;;;8.80;99.90;;;;;;5028165;28;20302;-87
2022/11/30 08:03:00;;;;;;;11.90;4.40;;;8.80;99.90;;;;;;5000768;28;20076;-87
2022/11/30 08:05:26;;;;;;;11.00;4.38;;;8.80;99.90;;;;;;5002805;28;20033;-87
2022/11/30 08:07:53;;;;;;;10.60;4.53;;;8.80;99.90;;;;;;5006418;28;20072;-87
2022/11/30 08:10:20;;;;;;;9.50;4.40;;;8.80;99.90;;;;;;5016965;28;20226;-87
2022/11/30 08:12:46;;;;;;;12.50;4.70;;;8.80;99.90;;;;;;5022517;28;20635;-87
2022/11/30 08:15:12;;;;;;;10.82;4.45;;;8.80;99.90;;;;;;5045324;28;20025;-86
2022/11/30 08:17:38;;;;;;;10.05;4.10;;;8.80;99.90;;;;;;5027276;28;20029;-87
2022/11/30 08:20:06;;;;;;;9.80;4.30;;;8.90;99.90;;;;;;5027414;28;20029;-87
2022/11/30 08:22:33;;;;;;;10.05;4.20;;;8.90;99.90;;;;;;5020800;28;20036;-87
2022/11/30 08:24:59;;;;;;;10.98;4.57;;;8.90;99.90;;;;;;5028972;28;20052;-87
2022/11/30 08:27:25;;;;;;;11.87;4.53;;;8.90;99.90;;;;;;5029094;28;20548;-87
2022/11/30 08:29:50;;;;;;;11.05;4.53;;;8.90;99.90;;;;;;5025263;28;20029;-87
2022/11/30 08:32:16;;;;;;;13.20;5.05;;;8.90;99.90;;;;;;5025969;28;20470;-88
2022/11/30 08:34:42;;;;;;;11.07;4.47;;;8.90;99.90;;;;;;5021259;28;20033;-87
2022/11/30 08:37:08;;;;;;;11.90;4.53;;;8.90;99.90;;;;;;5010178;28;20033;-87
2022/11/30 08:39:33;;;;;;;10.20;4.43;;;9.00;99.90;;;;;;5026800;28;20121;-87
2022/11/30 08:42:02;;;;;;;10.47;4.90;;;9.00;99.90;;;;;;5020167;28;20025;-87
2022/11/30 08:44:28;;;;;;;9.48;4.50;;;9.00;99.90;;;;;;5012967;28;20476;-87
2022/11/30 08:46:55;;;;;;;10.65;4.95;;;9.00;99.90;;;;;;5044474;28;20051;-87
2022/11/30 08:49:22;;;;;;;11.38;4.95;;;9.10;99.90;;;;;;5010617;28;20048;-86
2022/11/30 08:51:48;;;;;;;10.47;4.23;;;9.10;99.90;;;;;;5025049;28;20036;-87
2022/11/30 08:54:14;;;;;;;11.32;4.75;;;9.10;99.90;;;;;;5021849;28;20725;-87
2022/11/30 08:56:40;;;;;;;11.32;4.90;;;9.10;99.90;;;;;;5029016;28;20025;-87
2022/11/30 08:59:05;;;;;;;11.97;4.77;;;9.10;99.90;;;;;;5030538;28;20044;-87
2022/11/30 09:01:31;;;;;;;9.97;4.37;;;9.20;99.90;;;;;;5020845;28;20031;-87
2022/11/30 09:03:57;;;;;;;12.32;4.78;;;9.20;99.90;;;;;;5022597;28;20026;-87
2022/11/30 09:06:27;;;;;;;12.70;5.10;;;9.20;99.90;;;;;;5000272;28;20349;-87
2022/11/30 09:08:56;;;;;;;12.77;5.03;;;9.20;99.90;;;;;;5019677;28;20021;-87
2022/11/30 09:11:28;;;;;;;11.48;5.00;;;9.20;99.90;;;;;;5026161;28;20544;-87
2022/11/30 09:13:56;;;;;;;11.98;4.72;;;9.20;99.90;;;;;;5020430;28;20028;-87
2022/11/30 09:16:23;;;;;;;12.43;5.10;;;9.30;99.90;;;;;;5028598;28;20230;-87
2022/11/30 09:18:49;;;;;;;10.90;4.73;;;9.30;99.90;;;;;;5032911;28;20086;-87
2022/11/30 09:21:17;;;;;;;12.18;5.05;;;9.30;99.90;;;;;;5024583;28;20028;-87
2022/11/30 09:23:44;;;;;;;11.88;5.60;;;9.30;99.90;;;;;;5038337;28;20486;-87
2022/11/30 09:26:13;;;;;;;11.00;4.50;;;9.40;99.90;;;;;;5047990;28;20020;-87
2022/11/30 09:28:39;;;;;;;12.52;5.05;;;9.40;99.90;;;;;;5012542;28;20052;-87
2022/11/30 09:31:14;;;;;;;10.60;5.20;;;9.40;99.90;;;;;;5014304;28;20017;-87
2022/11/30 09:33:40;;;;;;;11.10;4.90;;;9.40;99.90;;;;;;5022634;28;20108;-86
2022/11/30 09:36:08;;;;;;;10.98;5.43;;;9.50;99.90;;;;;;5012668;28;20025;-86
2022/11/30 09:38:34;;;;;;;10.57;4.60;;;9.50;99.90;;;;;;5010672;28;20119;-86
2022/11/30 09:41:23;;;;;;;9.70;4.70;;;9.50;99.90;;;;;;5019143;28;20023;-86
2022/11/30 09:44:15;;;;;;;10.43;5.05;;;9.50;99.90;;;;;;4986664;28;20750;-86
2022/11/30 09:46:56;;;;;;;10.18;4.38;;;9.60;99.90;;;;;;5020032;28;20036;-86
2022/11/30 09:49:31;;;;;;;11.40;4.97;;;9.60;99.90;;;;;;5025074;28;20100;-87
2022/11/30 09:52:03;;;;;;;11.57;5.20;;;9.60;99.90;;;;;;5019919;28;20108;-87
2022/11/30 09:54:41;;;;;;;13.38;4.90;;;9.60;99.90;;;;;;5002998;28;20026;-87
2022/11/30 09:57:27;;;;;;;11.30;4.63;;;9.70;99.90;;;;;;4999084;28;20030;-86
2022/11/30 10:00:18;;;;;;;10.40;4.93;;;9.70;99.90;;;;;;5028109;28;20030;-87
2022/11/30 10:02:44;;;;;;;14.55;4.55;;;9.70;99.90;;;;;;5020563;28;20419;-88
2022/11/30 10:05:16;;;;;;;14.67;4.83;;;9.70;99.90;;;;;;5023059;28;20866;-87
2022/11/30 10:07:44;;;;;;;10.45;4.60;;;9.70;99.90;;;;;;5047067;28;20537;-86
2022/11/30 10:10:38;;;;;;;10.65;5.15;;;9.70;99.90;;;;;;5002286;28;20083;-87
2022/11/30 10:13:41;;;;;;;12.05;5.18;;;9.70;99.90;;;;;;5019203;28;20049;-87
2022/11/30 10:16:06;;;;;;;12.50;4.75;;;9.70;99.90;;;;;;4997263;28;20033;-87
2022/11/30 10:18:47;;;;;;;10.63;4.77;;;9.80;99.90;;;;;;5018650;28;20738;-87
2022/11/30 10:21:28;;;;;;;11.35;5.07;;;9.80;99.90;;;;;;5027113;28;20040;-87
2022/11/30 10:24:28;;;;;;;13.93;6.28;;;9.80;99.90;;;;;;5013574;28;20545;-86
2022/11/30 10:26:56;;;;;;;12.67;5.80;;;9.80;99.90;;;;;;5017029;28;20115;-87
2022/11/30 10:29:28;;;;;;;15.60;6.00;;;9.80;99.90;;;;;;5022366;28;20533;-87
2022/11/30 10:32:00;;;;;;;14.50;5.90;;;9.90;99.90;;;;;;5043911;28;20029;-87
2022/11/30 10:34:34;;;;;;;12.75;5.63;;;9.90;99.90;;;;;;5019230;28;20056;-86
2022/11/30 10:37:11;;;;;;;15.27;6.38;;;10.00;99.90;;;;;;5027291;28;20052;-87
2022/11/30 10:39:55;;;;;;;15.77;6.20;;;10.00;99.90;;;;;;5000968;28;20132;-87
2022/11/30 10:42:43;;;;;;;16.40;6.68;;;10.00;99.90;;;;;;5007356;28;20092;-87
2022/11/30 10:45:21;;;;;;;17.42;6.85;;;10.10;99.90;;;;;;5058598;28;20052;-87
2022/11/30 10:48:10;;;;;;;16.65;7.13;;;10.10;99.90;;;;;;5011143;28;20200;-87
2022/11/30 10:50:35;;;;;;;16.20;6.10;;;10.10;99.90;;;;;;5038095;28;20080;-87
2022/11/30 10:53:01;;;;;;;18.53;7.23;;;10.10;99.90;;;;;;5028420;28;20480;-87
2022/11/30 10:55:34;;;;;;;18.15;6.82;;;10.20;99.90;;;;;;5012418;28;20493;-87
2022/11/30 10:58:30;;;;;;;14.27;5.85;;;10.20;99.90;;;;;;5017412;28;20669;-88
2022/11/30 11:01:04;;;;;;;14.17;5.87;;;10.20;99.90;;;;;;4990944;28;20029;-86
2022/11/30 11:03:31;;;;;;;15.50;5.45;;;10.30;99.90;;;;;;4985270;28;20032;-87
2022/11/30 11:06:22;;;;;;;12.45;5.65;;;10.30;99.90;;;;;;5024938;28;20032;-87
2022/11/30 11:08:48;;;;;;;12.38;4.88;;;10.40;99.90;;;;;;5023081;28;20029;-87
2022/11/30 11:11:26;;;;;;;13.88;6.10;;;10.40;99.90;;;;;;5019984;28;20032;-87
2022/11/30 11:14:06;;;;;;;12.27;5.17;;;10.40;99.90;;;;;;5032704;28;20037;-87
2022/11/30 11:16:58;;;;;;;12.52;5.32;;;10.40;99.90;;;;;;5006342;28;20372;-87
2022/11/30 11:19:32;;;;;;;13.60;5.30;;;10.50;99.90;;;;;;5060316;28;20829;-87
2022/11/30 11:22:00;;;;;;;15.23;6.53;;;10.50;99.90;;;;;;5025074;28;20642;-87
2022/11/30 11:24:27;;;;;;;13.20;5.32;;;10.50;99.90;;;;;;5027489;28;20025;-87
2022/11/30 11:26:55;;;;;;;15.40;5.53;;;10.60;99.90;;;;;;5023177;28;20018;-87
2022/11/30 11:29:30;;;;;;;15.80;6.20;;;10.60;99.90;;;;;;5006476;28;20515;-86
2022/11/30 11:32:07;;;;;;;13.77;5.88;;;10.60;99.90;;;;;;5035247;28;20025;-87
2022/11/30 11:34:34;;;;;;;15.00;5.68;;;10.60;99.90;;;;;;5016142;28;20021;-87
2022/11/30 11:37:11;;;;;;;15.65;6.70;;;10.70;99.90;;;;;;5044652;28;20105;-88
2022/11/30 11:39:37;;;;;;;16.03;5.90;;;10.70;99.90;;;;;;5017443;28;20076;-87
2022/11/30 11:42:03;;;;;;;14.73;6.05;;;10.70;99.90;;;;;;5003119;28;20130;-87
2022/11/30 11:44:30;;;;;;;16.67;6.28;;;10.70;99.90;;;;;;5028801;28;20029;-87
2022/11/30 11:47:02;;;;;;;15.23;5.83;;;10.70;99.90;;;;;;5023926;28;20524;-87
2022/11/30 11:49:31;;;;;;;17.77;5.93;;;10.70;99.90;;;;;;5014667;28;20025;-87
2022/11/30 11:52:04;;;;;;;15.90;6.57;;;10.80;99.90;;;;;;5023216;28;20024;-87
2022/11/30 11:54:41;;;;;;;14.10;5.75;;;10.80;99.90;;;;;;5044754;28;20186;-87
2022/11/30 11:57:16;;;;;;;17.00;6.68;;;10.80;99.90;;;;;;5012339;28;20025;-87
2022/11/30 11:59:58;;;;;;;17.03;6.67;;;10.90;99.90;;;;;;5008538;28;20037;-88
2022/11/30 12:02:37;;;;;;;19.20;6.63;;;10.90;99.90;;;;;;5041920;28;20532;-88
2022/11/30 12:05:09;;;;;;;20.27;7.30;;;11.00;99.90;;;;;;5036399;28;20083;-87
2022/11/30 12:08:03;;;;;;;18.58;7.03;;;11.00;99.90;;;;;;5032226;28;20323;-87
2022/11/30 12:10:46;;;;;;;16.25;6.18;;;11.00;99.90;;;;;;5019494;28;20037;-87
2022/11/30 12:13:25;;;;;;;15.83;6.10;;;11.10;99.90;;;;;;5025586;28;20052;-87
2022/11/30 12:16:25;;;;;;;17.85;6.32;;;11.10;99.90;;;;;;5019023;28;20040;-87
2022/11/30 12:19:16;;;;;;;15.25;6.15;;;11.10;99.90;;;;;;5035171;28;20362;-87
2022/11/30 12:22:11;;;;;;;14.68;6.13;;;11.20;99.90;;;;;;5025623;28;20017;-88
2022/11/30 12:25:08;;;;;;;15.73;6.05;;;11.20;99.90;;;;;;5028244;28;20131;-87
2022/11/30 12:27:49;;;;;;;19.43;6.43;;;11.20;99.90;;;;;;5003397;28;20768;-88
2022/11/30 12:30:26;;;;;;;16.83;6.47;;;11.30;99.90;;;;;;5040747;28;20049;-88
2022/11/30 12:33:11;;;;;;;19.40;7.60;;;11.30;99.90;;;;;;5025319;28;20020;-88
2022/11/30 12:35:55;;;;;;;16.80;6.72;;;11.30;99.90;;;;;;5004880;28;23287;-88
2022/11/30 12:38:42;;;;;;;17.17;6.65;;;11.30;99.90;;;;;;5027071;28;20181;-88
2022/11/30 12:41:22;;;;;;;16.63;6.87;;;11.30;99.90;;;;;;5027568;28;20505;-88
2022/11/30 12:44:27;;;;;;;16.95;7.13;;;11.30;99.90;;;;;;5009717;28;20030;-88
2022/11/30 12:47:17;;;;;;;18.02;7.10;;;11.30;99.90;;;;;;5011514;28;20025;-88
2022/11/30 12:50:04;;;;;;;16.73;6.60;;;11.30;99.90;;;;;;5035670;28;20037;-88
2022/11/30 12:52:35;;;;;;;18.02;6.15;;;11.20;99.90;;;;;;5005755;28;20027;-88
2022/11/30 12:55:30;;;;;;;16.80;6.63;;;11.20;99.90;;;;;;5047778;28;20086;-88
2022/11/30 12:58:33;;;;;;;18.50;6.97;;;11.20;99.90;;;;;;5030346;28;20021;-88
2022/11/30 13:01:13;;;;;;;15.32;5.93;;;11.30;99.90;;;;;;4997778;28;20054;-88
2022/11/30 13:03:57;;;;;;;15.02;6.45;;;11.20;99.90;;;;;;5007409;28;20033;-88
2022/11/30 13:06:31;;;;;;;18.58;7.78;;;11.30;99.90;;;;;;5046494;28;20247;-88